createdAt,value
2019-05-01T00:02:44.479Z,81.20
2019-05-01T00:05:17.361Z,81.22
2019-05-01T00:07:48.704Z,81.07
2019-05-01T00:10:21.465Z,81.05
2019-05-01T00:12:51.913Z,81.42
2019-05-01T00:15:25.613Z,81.43
2019-05-01T00:17:57.065Z,81.37
2019-05-01T00:20:27.900Z,82.03
2019-05-01T00:22:58.740Z,82.78
2019-05-01T00:25:30.324Z,82.89
2019-05-01T00:28:02.656Z,82.95
2019-05-01T00:30:34.411Z,82.87
2019-05-01T00:33:05.350Z,82.83
2019-05-01T00:35:35.979Z,83.19
2019-05-01T00:38:06.916Z,83.35
2019-05-01T00:40:38.675Z,83.13
2019-05-01T00:43:09.614Z,83.13
2019-05-01T00:45:41.869Z,83.04
2019-05-01T00:48:12.671Z,83.15
2019-05-01T00:50:44.866Z,83.21
2019-05-01T00:53:15.514Z,83.31
2019-05-01T00:56:06.483Z,83.48
2019-05-01T00:58:51.182Z,83.50
2019-05-01T01:01:39.929Z,83.61
2019-05-01T01:04:12.652Z,83.60
2019-05-01T01:06:43.554Z,83.52
2019-05-01T01:09:14.494Z,83.50
2019-05-01T01:11:45.425Z,83.64
2019-05-01T01:14:16.460Z,83.89
2019-05-01T01:16:49.186Z,83.91
2019-05-01T01:19:20.183Z,84.08
2019-05-01T01:21:51.821Z,84.46
2019-05-01T01:24:22.363Z,84.52
2019-05-01T01:26:53.302Z,84.87
2019-05-01T01:29:24.426Z,84.83
2019-05-01T01:31:55.483Z,84.54
2019-05-01T01:34:26.432Z,84.52
2019-05-01T01:36:57.148Z,84.77
2019-05-01T01:39:28.598Z,85.15
2019-05-01T01:42:00.154Z,85.40
2019-05-01T01:44:35.796Z,85.72
2019-05-01T01:47:06.738Z,85.81
2019-05-01T01:49:38.073Z,85.48
2019-05-01T01:52:08.813Z,85.66
2019-05-01T01:54:39.653Z,85.66
2019-05-01T01:57:10.839Z,85.97
2019-05-01T01:59:42.147Z,86.00
2019-05-01T02:02:21.982Z,86.22
2019-05-01T02:05:06.338Z,86.53
2019-05-01T02:07:38.543Z,86.76
2019-05-01T02:10:09.539Z,86.84
2019-05-01T02:12:41.161Z,86.80
2019-05-01T02:15:12.270Z,86.82
2019-05-01T02:17:44.508Z,87.10
2019-05-01T02:20:16.164Z,87.22
2019-05-01T02:22:47.101Z,87.29
2019-05-01T02:25:18.138Z,87.36
2019-05-01T02:27:53.682Z,87.28
2019-05-01T02:30:26.566Z,87.26
2019-05-01T02:32:59.323Z,87.52
2019-05-01T02:35:31.335Z,87.75
2019-05-01T02:38:04.499Z,88.00
2019-05-01T02:40:51.615Z,87.97
2019-05-01T02:43:24.114Z,87.95
2019-05-01T02:45:58.118Z,87.89
2019-05-01T02:48:31.647Z,87.87
2019-05-01T02:51:02.835Z,87.93
2019-05-01T02:53:35.925Z,87.90
2019-05-01T02:56:22.768Z,87.90
2019-05-01T02:58:56.982Z,87.82
2019-05-01T03:01:45.063Z,87.48
2019-05-01T03:04:01.286Z,87.30
2019-05-01T03:06:33.857Z,87.21
2019-05-01T03:09:07.867Z,86.89
2019-05-01T03:11:39.484Z,86.67
2019-05-01T03:14:12.838Z,86.52
2019-05-01T03:16:43.957Z,86.71
2019-05-01T03:19:16.019Z,86.61
2019-05-01T03:21:51.189Z,86.81
2019-05-01T03:24:24.492Z,86.89
2019-05-01T03:26:55.694Z,86.91
2019-05-01T03:29:26.859Z,87.03
2019-05-01T03:32:15.940Z,87.11
2019-05-01T03:34:30.869Z,87.28
2019-05-01T03:37:01.470Z,87.04
2019-05-01T03:39:32.425Z,86.65
2019-05-01T03:42:04.532Z,86.43
2019-05-01T03:44:35.123Z,86.32
2019-05-01T03:47:07.407Z,86.57
2019-05-01T03:49:39.043Z,86.85
2019-05-01T03:52:09.776Z,86.81
2019-05-01T03:54:42.455Z,86.66
2019-05-01T03:57:13.883Z,86.70
2019-05-01T03:59:45.027Z,86.71
2019-05-01T04:02:33.202Z,86.35
2019-05-01T04:04:56.399Z,86.02
2019-05-01T04:07:28.041Z,85.88
2019-05-01T04:09:58.834Z,85.62
2019-05-01T04:12:30.200Z,85.24
2019-05-01T04:15:01.523Z,85.35
2019-05-01T04:17:36.659Z,85.44
2019-05-01T04:20:08.111Z,85.56
2019-05-01T04:22:39.041Z,85.46
2019-05-01T04:25:10.952Z,85.10
2019-05-01T04:27:43.175Z,84.71
2019-05-01T04:30:25.579Z,84.49
2019-05-01T04:32:58.260Z,84.74
2019-05-01T04:35:30.770Z,84.80
2019-05-01T04:38:02.501Z,84.73
2019-05-01T04:40:34.961Z,84.40
2019-05-01T04:43:06.614Z,84.13
2019-05-01T04:45:37.963Z,84.04
2019-05-01T04:48:09.490Z,83.88
2019-05-01T04:50:41.166Z,83.39
2019-05-01T04:53:11.898Z,83.17
2019-05-01T04:55:45.071Z,82.69
2019-05-01T04:58:16.926Z,82.54
2019-05-01T05:00:47.906Z,82.52
2019-05-01T05:03:22.616Z,82.24
2019-05-01T05:05:53.648Z,81.92
2019-05-01T05:08:24.689Z,81.77
2019-05-01T05:11:00.590Z,81.17
2019-05-01T05:13:46.948Z,80.83
2019-05-01T05:16:19.823Z,80.41
2019-05-01T05:18:50.898Z,79.42
2019-05-01T05:21:24.218Z,79.14
2019-05-01T05:23:55.501Z,78.95
2019-05-01T05:26:26.335Z,78.37
2019-05-01T05:28:58.865Z,77.83
2019-05-01T05:31:29.972Z,77.40
2019-05-01T05:34:02.293Z,76.63
2019-05-01T05:36:35.516Z,76.82
2019-05-01T05:39:09.214Z,76.80
2019-05-01T05:41:40.517Z,76.32
2019-05-01T05:44:11.369Z,75.86
2019-05-01T05:46:42.026Z,75.72
2019-05-01T05:49:13.286Z,75.46
2019-05-01T05:51:47.174Z,74.83
2019-05-01T05:54:31.468Z,74.65
2019-05-01T05:57:08.099Z,74.08
2019-05-01T05:59:52.660Z,72.98
2019-05-01T06:02:29.882Z,72.50
2019-05-01T06:05:22.695Z,72.59
2019-05-01T06:07:57.733Z,72.70
2019-05-01T06:10:35.214Z,71.80
2019-05-01T06:13:18.008Z,70.97
2019-05-01T06:15:51.526Z,70.45
2019-05-01T06:18:27.381Z,69.74
2019-05-01T06:21:02.367Z,68.86
2019-05-01T06:23:45.436Z,68.34
2019-05-01T06:26:31.900Z,67.67
2019-05-01T06:29:02.359Z,66.83
2019-05-01T06:31:33.714Z,66.58
2019-05-01T06:34:04.956Z,65.59
2019-05-01T06:36:35.889Z,64.72
2019-05-01T06:39:11.712Z,64.01
2019-05-01T06:41:43.211Z,64.26
2019-05-01T06:44:17.183Z,64.13
2019-05-01T06:47:03.271Z,64.59
2019-05-01T06:49:45.599Z,65.38
2019-05-01T06:52:24.901Z,65.65
2019-05-01T06:54:54.167Z,66.18
2019-05-01T06:57:26.119Z,67.06
2019-05-01T07:00:03.155Z,66.42
2019-05-01T07:02:35.077Z,65.68
2019-05-01T07:05:24.954Z,65.75
2019-05-01T07:07:56.922Z,65.80
2019-05-01T07:10:39.110Z,66.06
2019-05-01T07:13:05.016Z,64.98
2019-05-01T07:15:38.824Z,64.51
2019-05-01T07:18:11.456Z,64.37
2019-05-01T07:20:51.332Z,65.60
2019-05-01T07:23:22.690Z,65.88
2019-05-01T07:25:53.400Z,66.80
2019-05-01T07:28:29.010Z,66.26
2019-05-01T07:30:59.475Z,65.39
2019-05-01T07:33:32.263Z,64.62
2019-05-01T07:36:07.087Z,64.04
2019-05-01T07:38:38.367Z,64.29
2019-05-01T07:41:09.115Z,63.33
2019-05-01T07:44:01.014Z,62.99
2019-05-01T07:46:54.381Z,63.03
2019-05-01T07:49:25.921Z,63.03
2019-05-01T07:51:56.236Z,62.87
2019-05-01T07:54:26.859Z,62.13
2019-05-01T07:56:58.635Z,61.47
2019-05-01T07:59:30.586Z,61.19
2019-05-01T08:02:02.668Z,60.42
2019-05-01T08:04:36.279Z,59.26
2019-05-01T08:07:06.252Z,58.09
2019-05-01T08:09:38.835Z,56.74
2019-05-01T08:12:09.358Z,56.59
2019-05-01T08:14:40.293Z,56.19
2019-05-01T08:17:18.107Z,56.14
2019-05-01T08:19:53.231Z,55.22
2019-05-01T08:22:25.939Z,55.13
2019-05-01T08:24:58.641Z,53.95
2019-05-01T08:27:43.246Z,53.95
2019-05-01T08:30:32.513Z,54.21
2019-05-01T08:33:09.830Z,53.74
2019-05-01T08:35:40.858Z,53.58
2019-05-01T08:38:11.673Z,54.68
2019-05-01T08:40:44.455Z,53.77
2019-05-01T08:43:18.158Z,52.71
2019-05-01T08:45:52.815Z,52.82
2019-05-01T08:48:24.947Z,54.91
2019-05-01T08:50:59.396Z,54.63
2019-05-01T08:53:29.793Z,54.93
2019-05-01T08:56:01.445Z,55.53
2019-05-01T08:58:32.384Z,55.41
2019-05-01T09:01:05.077Z,54.25
2019-05-01T09:03:37.847Z,54.33
2019-05-01T09:06:08.414Z,54.01
2019-05-01T09:08:39.492Z,52.99
2019-05-01T09:11:10.565Z,53.16
2019-05-01T09:13:43.437Z,53.68
2019-05-01T09:16:14.369Z,53.41
2019-05-01T09:18:46.021Z,53.14
2019-05-01T09:21:16.959Z,51.98
2019-05-01T09:23:51.477Z,50.58
2019-05-01T09:26:33.890Z,50.19
2019-05-01T09:29:23.990Z,50.93
2019-05-01T09:31:56.701Z,51.26
2019-05-01T09:34:27.220Z,53.16
2019-05-01T09:36:58.235Z,52.96
2019-05-01T09:39:30.602Z,53.34
2019-05-01T09:42:01.224Z,53.40
2019-05-01T09:44:34.049Z,54.05
2019-05-01T09:47:06.053Z,52.58
2019-05-01T09:49:36.710Z,52.46
2019-05-01T09:52:18.904Z,51.11
2019-05-01T09:54:58.640Z,50.97
2019-05-01T09:57:30.923Z,51.66
2019-05-01T10:00:02.865Z,51.54
2019-05-01T10:02:33.403Z,50.31
2019-05-01T10:05:07.892Z,48.46
2019-05-01T10:07:40.247Z,47.65
2019-05-01T10:10:12.150Z,46.60
2019-05-01T10:12:46.941Z,45.57
2019-05-01T10:15:15.766Z,45.12
2019-05-01T10:17:46.599Z,41.45
2019-05-01T10:20:17.750Z,38.33
2019-05-01T10:22:48.888Z,40.42
2019-05-01T10:25:19.827Z,40.79
2019-05-01T10:27:53.041Z,40.52
2019-05-01T10:30:43.922Z,41.00
2019-05-01T10:33:16.186Z,41.21
2019-05-01T10:36:03.918Z,43.81
2019-05-01T10:38:39.986Z,43.67
2019-05-01T10:41:10.444Z,43.08
2019-05-01T10:43:41.337Z,43.99
2019-05-01T10:46:11.866Z,45.12
2019-05-01T10:48:42.711Z,45.20
2019-05-01T10:51:13.476Z,44.73
2019-05-01T10:53:44.166Z,44.91
2019-05-01T10:56:14.899Z,45.08
2019-05-01T10:58:46.178Z,43.68
2019-05-01T11:01:18.314Z,42.57
2019-05-01T11:03:49.156Z,43.21
2019-05-01T11:06:20.426Z,43.18
2019-05-01T11:08:52.466Z,42.97
2019-05-01T11:11:23.183Z,42.89
2019-05-01T11:13:54.023Z,42.79
2019-05-01T11:16:27.008Z,44.91
